METAR AND TAF INFORMATION
METAR FOR VVNB
ADDS - METARS form results

(1146 UTC 22 October 2020)
Data provider http://aviationweather.gov/metar/data/
 
METAR text: VVNB 221130Z 35003KT 320V040 8000 NSC 25/11 Q1012 NOSIG
Conditions at: VVNB (HANOI/NOIBAI INT, VN) observed 1130 UTC 22 October 2020
Temperature: 25.0°C (77°F)
Dewpoint: 11.0°C (52°F) [RH = 41%]
Pressure (altimeter): 29.88 inches Hg (1012.0 mb)
Winds: from the N (350 degrees) at 3 MPH (3 knots; 1.5 m/s)
Visibility: 5 miles ( 8 km)
Ceiling: at least 12,000 feet AGL
Clouds: sky clear below 12,000 feet AGL
Weather: no significant weather observed at this time

METAR text: VVNB 221100Z 34003KT 6000 NSC 25/10 Q1012 NOSIG
Conditions at: VVNB (HANOI/NOIBAI INT, VN) observed 1100 UTC 22 October 2020
Temperature: 25.0°C (77°F)
Dewpoint: 10.0°C (50°F) [RH = 39%]
Pressure (altimeter): 29.88 inches Hg (1012.0 mb)
Winds: from the NNW (340 degrees) at 3 MPH (3 knots; 1.5 m/s)
Visibility: 4 miles ( 6 km)
Ceiling: at least 12,000 feet AGL
Clouds: sky clear below 12,000 feet AGL
Weather: no significant weather observed at this time

Forecast for: VVNB (HANOI/NOIBAI INT, VN)
Text: TAF VVNB 221100Z 2212/2312 34008KT 9999 SCT020
Forecast period: 1200 UTC 22 October 2020 to 1200 UTC 23 October 2020
Forecast type: FROM: standard forecast or significant change
Winds: from the NNW (340 degrees) at 9 MPH (8 knots; 4.1 m/s)
Visibility: 6 or more miles (10+ km)
Ceiling: at least 12,000 feet AGL
Clouds: scattered clouds at 2000 feet AGL
Weather: no significant weather forecast for this period

 AIRPORT MAP

 RUNWAY INFORMATION
Runway 11L Runway length 12466 ft Runway width 148 ft
Runway elevation 40 ft Runway displaced threshold 0 ft Runway heading 107
Runway 29R Runway length 12466 ft Runway width 148 ft
Runway elevation 40 ft Runway displaced threshold 0 ft Runway heading 287
Runway 11R Runway length 12466 ft Runway width 148 ft
Runway elevation 38 ft Runway displaced threshold 0 ft Runway heading 107
Runway 29L Runway length 12466 ft Runway width 148 ft
Runway elevation 39 ft Runway displaced threshold 0 ft Runway heading 287

 AIRPORT FREQUENCIES
Type APP Name APP Frequency 125.1 MHZ
Type GND Name GND Frequency 121.9 MHZ
Type TWR Name TWR Frequency 118.2 MHZ

 AIRPORT NEAR NAVIGATION AIDS
Type NDB Name Noibai Frequency 230 KHZ
Type NDB Name Noibai Frequency 320 KHZ
Type VOR-DME Name Noibai Frequency 116100 KHZ



Powered by Virtual Airlines Manager [v2.6.2]

Hosted by Utixo.it